createdAt,value
2022-11-23T00:01:16.573Z,10.53
2022-11-23T00:03:44.124Z,16.17
2022-11-23T00:06:10.970Z,18.13
2022-11-23T00:08:37.474Z,12.60
2022-11-23T00:11:04.104Z,16.27
2022-11-23T00:13:31.042Z,13.47
2022-11-23T00:15:57.549Z,14.13
2022-11-23T00:18:24.015Z,13.60
2022-11-23T00:20:50.542Z,8.30
2022-11-23T00:23:17.075Z,9.00
2022-11-23T00:25:46.970Z,12.13
2022-11-23T00:28:13.832Z,12.20
2022-11-23T00:30:40.307Z,10.20
2022-11-23T00:33:06.827Z,10.73
2022-11-23T00:35:33.408Z,12.10
2022-11-23T00:37:59.863Z,15.53
2022-11-23T00:40:26.486Z,10.23
2022-11-23T00:42:52.926Z,6.43
2022-11-23T00:45:19.413Z,12.37
2022-11-23T00:47:45.860Z,8.37
2022-11-23T00:50:12.353Z,18.77
2022-11-23T00:52:38.780Z,11.10
2022-11-23T00:55:05.573Z,11.63
2022-11-23T00:57:33.528Z,10.93
2022-11-23T01:00:00.292Z,12.37
2022-11-23T01:02:26.822Z,10.73
2022-11-23T01:04:53.302Z,14.70
2022-11-23T01:07:19.733Z,9.70
2022-11-23T01:09:46.381Z,14.17
2022-11-23T01:12:12.908Z,10.83
2022-11-23T01:14:39.459Z,13.60
2022-11-23T01:17:06.128Z,9.33
2022-11-23T01:19:32.784Z,10.90
2022-11-23T01:21:59.410Z,12.23
2022-11-23T01:24:26.059Z,12.97
2022-11-23T01:26:54.323Z,10.67
2022-11-23T01:29:22.032Z,11.57
2022-11-23T01:31:48.548Z,9.40
2022-11-23T01:34:15.585Z,14.33
2022-11-23T01:36:42.559Z,20.53
2022-11-23T01:39:10.853Z,11.97
2022-11-23T01:41:40.322Z,11.20
2022-11-23T01:44:24.347Z,11.93
2022-11-23T01:46:50.867Z,11.30
2022-11-23T01:49:17.497Z,9.73
2022-11-23T01:51:45.830Z,12.70
2022-11-23T01:54:18.911Z,11.23
2022-11-23T01:56:53.310Z,9.77
2022-11-23T01:59:20.291Z,7.93
2022-11-23T02:01:47.042Z,13.63
2022-11-23T02:04:18.416Z,12.93
2022-11-23T02:06:46.717Z,16.30
2022-11-23T02:09:14.721Z,13.73
2022-11-23T02:11:41.199Z,15.00
2022-11-23T02:14:07.871Z,9.47
2022-11-23T02:16:35.191Z,11.37
2022-11-23T02:19:01.647Z,11.30
2022-11-23T02:21:28.542Z,11.33
2022-11-23T02:24:09.083Z,8.80
2022-11-23T02:26:36.334Z,12.70
2022-11-23T02:29:05.622Z,11.13
2022-11-23T02:31:32.727Z,10.37
2022-11-23T02:33:59.243Z,11.37
2022-11-23T02:36:41.224Z,5.67
2022-11-23T02:39:14.222Z,13.40
2022-11-23T02:41:47.061Z,16.57
2022-11-23T02:44:41.286Z,13.30
2022-11-23T02:47:09.389Z,14.10
2022-11-23T02:49:35.976Z,11.00
2022-11-23T02:52:03.735Z,13.40
2022-11-23T02:54:30.215Z,13.83
2022-11-23T02:56:57.064Z,16.53
2022-11-23T02:59:23.531Z,13.10
2022-11-23T03:01:49.990Z,15.50
2022-11-23T03:04:16.644Z,16.50
2022-11-23T03:06:43.086Z,12.57
2022-11-23T03:09:09.693Z,14.87
2022-11-23T03:11:36.231Z,13.20
2022-11-23T03:14:02.979Z,10.27
2022-11-23T03:16:29.739Z,12.20
2022-11-23T03:18:56.550Z,8.00
2022-11-23T03:21:23.092Z,14.67
2022-11-23T03:23:49.632Z,14.40
2022-11-23T03:26:16.114Z,11.77
2022-11-23T03:28:42.700Z,8.40
2022-11-23T03:31:09.366Z,7.60
2022-11-23T03:33:35.930Z,7.27
2022-11-23T03:36:02.394Z,10.20
2022-11-23T03:38:28.834Z,7.67
2022-11-23T03:40:55.298Z,7.43
2022-11-23T03:43:23.248Z,10.97
2022-11-23T03:45:49.826Z,10.93
2022-11-23T03:48:16.686Z,11.37
2022-11-23T03:50:44.542Z,11.23
2022-11-23T03:53:11.825Z,16.63
2022-11-23T03:55:38.286Z,8.47
2022-11-23T03:58:05.354Z,10.10
2022-11-23T04:00:31.902Z,9.77
2022-11-23T04:02:58.674Z,13.63
2022-11-23T04:05:25.159Z,7.50
2022-11-23T04:07:51.693Z,9.43
2022-11-23T04:10:19.074Z,11.93
2022-11-23T04:12:45.861Z,22.30
2022-11-23T04:15:12.462Z,12.77
2022-11-23T04:17:39.023Z,9.20
2022-11-23T04:20:06.232Z,9.23
2022-11-23T04:22:32.758Z,13.63
2022-11-23T04:24:59.294Z,8.60
2022-11-23T04:27:25.774Z,7.30
2022-11-23T04:29:52.249Z,11.10
2022-11-23T04:32:18.677Z,9.83
2022-11-23T04:34:45.191Z,7.40
2022-11-23T04:37:13.667Z,14.30
2022-11-23T04:39:40.830Z,10.50
2022-11-23T04:42:07.296Z,15.30
2022-11-23T04:44:33.791Z,6.43
2022-11-23T04:47:00.272Z,13.50
2022-11-23T04:49:27.214Z,15.37
2022-11-23T04:51:53.704Z,17.73
2022-11-23T04:54:20.181Z,12.00
2022-11-23T04:56:46.676Z,8.20
2022-11-23T04:59:13.545Z,10.93
2022-11-23T05:01:40.036Z,13.27
2022-11-23T05:04:06.646Z,24.93
2022-11-23T05:06:33.142Z,8.83
2022-11-23T05:08:59.626Z,12.10
2022-11-23T05:11:27.122Z,12.27
2022-11-23T05:13:53.609Z,10.83
2022-11-23T05:16:20.198Z,12.13
2022-11-23T05:18:46.633Z,9.03
2022-11-23T05:21:13.226Z,21.07
2022-11-23T05:23:39.798Z,10.40
2022-11-23T05:26:06.460Z,24.67
2022-11-23T05:28:41.187Z,8.47
2022-11-23T05:31:08.365Z,9.83
2022-11-23T05:33:35.314Z,11.63
2022-11-23T05:36:02.005Z,10.97
2022-11-23T05:38:28.486Z,8.97
2022-11-23T05:40:54.980Z,13.33
2022-11-23T05:43:21.476Z,12.93
2022-11-23T05:45:47.990Z,22.43
2022-11-23T05:48:14.540Z,25.60
2022-11-23T05:50:41.031Z,20.90
2022-11-23T05:53:07.551Z,12.50
2022-11-23T05:55:33.994Z,10.60
2022-11-23T05:58:01.326Z,12.80
2022-11-23T06:00:27.775Z,14.50
2022-11-23T06:03:00.492Z,11.77
2022-11-23T06:05:27.512Z,11.60
2022-11-23T06:07:54.078Z,14.70
2022-11-23T06:10:22.617Z,17.03
2022-11-23T06:12:52.727Z,20.00
2022-11-23T06:15:19.406Z,13.77
2022-11-23T06:17:46.202Z,11.43
2022-11-23T06:20:12.782Z,12.23
2022-11-23T06:22:39.311Z,14.50
2022-11-23T06:25:06.250Z,14.37
2022-11-23T06:27:32.814Z,15.40
2022-11-23T06:29:59.330Z,14.83
2022-11-23T06:32:25.799Z,17.13
2022-11-23T06:34:53.849Z,18.43
2022-11-23T06:37:22.146Z,9.80
2022-11-23T06:39:48.667Z,10.27
2022-11-23T06:42:37.691Z,13.77
2022-11-23T06:45:01.689Z,10.13
2022-11-23T06:47:29.047Z,16.93
2022-11-23T06:49:55.554Z,14.47
2022-11-23T06:52:22.094Z,12.43
2022-11-23T06:54:48.584Z,12.43
2022-11-23T06:57:15.089Z,14.03
2022-11-23T06:59:44.729Z,15.37
2022-11-23T07:02:12.499Z,15.57
2022-11-23T07:04:39.090Z,13.77
2022-11-23T07:07:07.847Z,8.63
2022-11-23T07:09:34.669Z,11.83
2022-11-23T07:12:01.631Z,16.53
2022-11-23T07:14:28.194Z,13.87
2022-11-23T07:16:54.721Z,19.93
2022-11-23T07:19:21.187Z,15.73
2022-11-23T07:21:47.658Z,14.87
2022-11-23T07:24:14.297Z,15.13
2022-11-23T07:26:41.520Z,18.77
2022-11-23T07:29:07.994Z,13.10
2022-11-23T07:31:34.505Z,16.57
2022-11-23T07:34:01.068Z,23.97
2022-11-23T07:36:27.577Z,11.90
2022-11-23T07:38:54.065Z,16.63
2022-11-23T07:41:20.541Z,18.47
2022-11-23T07:43:47.047Z,15.23
2022-11-23T07:46:13.492Z,22.13
2022-11-23T07:48:39.959Z,22.80
2022-11-23T07:51:06.509Z,21.57
2022-11-23T07:53:33.029Z,18.73
2022-11-23T07:55:59.518Z,21.60
2022-11-23T07:58:26.066Z,28.37
2022-11-23T08:00:53.262Z,17.53
2022-11-23T08:03:27.698Z,26.00
2022-11-23T08:05:55.346Z,20.57
2022-11-23T08:08:22.102Z,10.43
2022-11-23T08:10:52.932Z,23.90
2022-11-23T08:13:20.947Z,22.17
2022-11-23T08:15:53.940Z,13.87
2022-11-23T08:18:21.500Z,15.13
2022-11-23T08:20:48.183Z,11.83
2022-11-23T08:23:14.765Z,10.93
2022-11-23T08:25:41.356Z,12.00
2022-11-23T08:28:07.842Z,10.77
2022-11-23T08:30:35.190Z,9.40
2022-11-23T08:33:05.734Z,17.53
2022-11-23T08:35:36.721Z,15.63
2022-11-23T08:38:07.994Z,16.77
2022-11-23T08:40:35.007Z,17.13
2022-11-23T08:43:01.500Z,11.57
2022-11-23T08:45:28.234Z,20.07
2022-11-23T08:47:55.710Z,10.00
2022-11-23T08:50:22.987Z,9.00
2022-11-23T08:52:55.987Z,19.40
2022-11-23T08:55:22.592Z,10.97
2022-11-23T08:57:49.133Z,10.03
2022-11-23T09:00:16.282Z,10.03
2022-11-23T09:02:42.814Z,12.77
2022-11-23T09:05:09.564Z,11.00
2022-11-23T09:07:36.063Z,7.80
2022-11-23T09:10:02.687Z,9.60
2022-11-23T09:12:29.202Z,14.80
2022-11-23T09:14:55.906Z,7.27
2022-11-23T09:17:22.468Z,7.23
2022-11-23T09:19:50.288Z,11.90
2022-11-23T09:22:16.906Z,16.90
2022-11-23T09:24:43.479Z,7.63
2022-11-23T09:27:10.022Z,7.77
2022-11-23T09:29:36.487Z,11.23
2022-11-23T09:32:03.343Z,11.33
2022-11-23T09:34:30.127Z,9.60
2022-11-23T09:36:57.293Z,12.17
2022-11-23T09:39:23.822Z,11.53
2022-11-23T09:42:05.281Z,15.17
2022-11-23T09:44:45.182Z,16.33
2022-11-23T09:47:17.396Z,8.20
2022-11-23T09:50:06.052Z,10.33
2022-11-23T09:52:32.854Z,9.87
2022-11-23T09:55:05.497Z,11.83
2022-11-23T09:57:34.227Z,12.60
2022-11-23T10:00:06.110Z,8.10
2022-11-23T10:02:36.903Z,10.57
2022-11-23T10:05:04.274Z,8.90
2022-11-23T10:07:44.405Z,11.83
2022-11-23T10:10:26.471Z,17.53
2022-11-23T10:13:11.504Z,7.70
2022-11-23T10:16:11.930Z,6.87
2022-11-23T10:18:50.679Z,7.93
2022-11-23T10:21:32.273Z,7.13
2022-11-23T10:24:07.955Z,8.57
2022-11-23T10:26:39.068Z,12.63
2022-11-23T10:29:38.178Z,8.03
2022-11-23T10:32:22.404Z,8.50
2022-11-23T10:34:56.404Z,4.20
2022-11-23T10:37:23.121Z,5.70
2022-11-23T10:39:49.884Z,6.77
2022-11-23T10:42:24.793Z,8.80
2022-11-23T10:44:52.568Z,6.77
2022-11-23T10:47:35.626Z,7.20
2022-11-23T10:50:02.199Z,11.73
2022-11-23T10:52:31.313Z,10.57
2022-11-23T10:55:00.142Z,6.80
2022-11-23T10:57:42.454Z,6.80
2022-11-23T11:00:15.154Z,8.00
2022-11-23T11:02:47.692Z,15.73
2022-11-23T11:06:07.418Z,10.30
2022-11-23T11:08:30.319Z,10.03
2022-11-23T11:11:05.420Z,9.00
2022-11-23T11:13:40.460Z,8.10
2022-11-23T11:16:22.489Z,11.07
2022-11-23T11:18:49.063Z,10.30
2022-11-23T11:21:21.783Z,11.27
2022-11-23T11:23:54.625Z,6.13
2022-11-23T11:26:23.446Z,12.40
2022-11-23T11:28:51.897Z,6.70
2022-11-23T11:31:33.769Z,12.70
2022-11-23T11:34:33.306Z,10.93
2022-11-23T11:37:14.090Z,7.50
2022-11-23T11:39:54.292Z,15.10
2022-11-23T11:42:27.409Z,9.60
2022-11-23T11:44:55.367Z,9.10
2022-11-23T11:47:32.236Z,13.50
2022-11-23T11:50:01.711Z,7.90
2022-11-23T11:52:33.200Z,7.40
2022-11-23T11:55:03.313Z,7.97
2022-11-23T11:57:36.014Z,13.10
2022-11-23T12:00:07.086Z,10.17
2022-11-23T12:02:43.294Z,15.00
2022-11-23T12:05:48.124Z,10.23
2022-11-23T12:08:36.780Z,15.37
2022-11-23T12:11:05.768Z,8.97
2022-11-23T12:13:34.542Z,9.30
2022-11-23T12:16:22.268Z,6.13
2022-11-23T12:18:51.855Z,8.07
2022-11-23T12:21:52.735Z,15.47
2022-11-23T12:24:43.261Z,5.53
2022-11-23T12:27:48.996Z,14.53
2022-11-23T12:30:21.811Z,12.93
2022-11-23T12:33:03.461Z,13.80
2022-11-23T12:35:33.268Z,12.87
2022-11-23T12:37:59.797Z,8.80
2022-11-23T12:40:38.880Z,7.00
2022-11-23T12:43:11.498Z,9.70
2022-11-23T12:45:50.993Z,8.73
2022-11-23T12:48:23.043Z,9.80
2022-11-23T12:50:52.462Z,17.80
2022-11-23T12:53:46.058Z,12.43
2022-11-23T12:56:30.752Z,11.53
2022-11-23T12:58:58.317Z,6.90
2022-11-23T13:01:32.642Z,8.00
2022-11-23T13:04:11.028Z,13.03
2022-11-23T13:07:26.814Z,14.73
2022-11-23T13:09:57.749Z,12.73
2022-11-23T13:12:43.149Z,9.80
2022-11-23T13:15:26.184Z,5.40
2022-11-23T13:18:19.208Z,10.17
2022-11-23T13:20:57.779Z,18.97
2022-11-23T13:23:24.318Z,28.80
2022-11-23T13:26:12.512Z,13.40
2022-11-23T13:28:38.995Z,12.73
2022-11-23T13:31:17.589Z,13.20
2022-11-23T13:33:46.077Z,10.53
2022-11-23T13:37:04.539Z,13.50
2022-11-23T13:39:39.695Z,10.60
2022-11-23T13:42:06.204Z,12.73
2022-11-23T13:44:33.480Z,14.00
2022-11-23T13:47:14.744Z,14.30
2022-11-23T13:49:44.268Z,8.57
2022-11-23T13:52:22.975Z,10.00
2022-11-23T13:55:18.383Z,10.20
2022-11-23T13:57:48.458Z,9.13
2022-11-23T14:00:45.712Z,17.37
2022-11-23T14:03:43.588Z,5.80
2022-11-23T14:06:22.021Z,7.87
2022-11-23T14:08:59.858Z,12.60
2022-11-23T14:11:27.326Z,15.53
2022-11-23T14:14:00.985Z,14.20
2022-11-23T14:17:07.899Z,11.80
2022-11-23T14:20:10.091Z,14.33
2022-11-23T14:22:36.491Z,7.13
2022-11-23T14:25:12.715Z,8.97
2022-11-23T14:28:06.454Z,7.83
2022-11-23T14:31:06.287Z,9.50
2022-11-23T14:33:56.267Z,12.30
2022-11-23T14:36:26.904Z,17.73
2022-11-23T14:39:27.232Z,12.87
2022-11-23T14:41:56.762Z,11.30
2022-11-23T14:44:27.551Z,17.07
2022-11-23T14:47:05.497Z,13.57
2022-11-23T14:49:32.998Z,15.40
2022-11-23T14:52:01.063Z,13.53
2022-11-23T14:54:30.089Z,31.53
2022-11-23T14:57:00.640Z,24.77
2022-11-23T14:59:32.502Z,15.83
2022-11-23T15:02:06.168Z,17.67
2022-11-23T15:04:38.143Z,16.20
2022-11-23T15:07:11.577Z,13.23
2022-11-23T15:09:58.007Z,15.30
2022-11-23T15:12:29.801Z,16.03
2022-11-23T15:14:59.995Z,16.60
2022-11-23T15:17:27.144Z,19.33
2022-11-23T15:19:58.738Z,18.37
2022-11-23T15:22:27.277Z,17.93
2022-11-23T15:24:53.946Z,17.90
2022-11-23T15:27:30.223Z,17.07
2022-11-23T15:29:59.038Z,15.93
2022-11-23T15:32:33.215Z,19.57
2022-11-23T15:35:03.717Z,19.33
2022-11-23T15:37:31.399Z,23.30
2022-11-23T15:39:58.214Z,23.37
2022-11-23T15:42:26.055Z,19.10
2022-11-23T15:44:53.741Z,17.30
2022-11-23T15:47:26.175Z,15.27
2022-11-23T15:50:00.804Z,15.53
2022-11-23T15:52:30.499Z,10.23
2022-11-23T15:54:58.144Z,15.83
2022-11-23T15:57:26.458Z,18.83
2022-11-23T15:59:57.724Z,26.20
2022-11-23T16:02:28.760Z,19.93
2022-11-23T16:05:15.078Z,25.00
2022-11-23T16:07:59.244Z,24.03
2022-11-23T16:10:27.500Z,18.53
2022-11-23T16:12:56.685Z,68.50
2022-11-23T16:15:27.271Z,78.83
2022-11-23T16:17:53.842Z,70.63
2022-11-23T16:20:22.125Z,96.37
2022-11-23T16:22:49.688Z,94.47
2022-11-23T16:25:27.077Z,79.97
2022-11-23T16:28:04.906Z,76.13
2022-11-23T16:30:40.599Z,64.93
2022-11-23T16:33:14.129Z,71.53
2022-11-23T16:35:40.591Z,63.67
2022-11-23T16:38:07.178Z,69.73
2022-11-23T16:40:33.840Z,66.70
2022-11-23T16:43:00.538Z,60.63
2022-11-23T16:45:27.939Z,56.30
2022-11-23T16:47:56.524Z,61.97
2022-11-23T16:50:23.849Z,66.13
2022-11-23T16:52:50.660Z,55.20
2022-11-23T16:55:17.117Z,56.20
2022-11-23T16:57:43.813Z,59.63
2022-11-23T17:00:24.048Z,54.90
2022-11-23T17:02:50.666Z,63.33
2022-11-23T17:05:21.447Z,57.03
2022-11-23T17:07:48.055Z,55.13
2022-11-23T17:10:14.965Z,49.60
2022-11-23T17:12:47.634Z,57.47
2022-11-23T17:15:14.210Z,52.80
2022-11-23T17:17:40.739Z,53.63
2022-11-23T17:20:12.555Z,56.10
2022-11-23T17:22:39.141Z,56.33
2022-11-23T17:25:13.052Z,59.53
2022-11-23T17:27:42.062Z,56.43
2022-11-23T17:30:17.429Z,48.07
2022-11-23T17:32:43.914Z,39.60
2022-11-23T17:35:10.687Z,63.23
2022-11-23T17:37:37.289Z,57.27
2022-11-23T17:40:04.031Z,71.33
2022-11-23T17:42:30.543Z,66.83
2022-11-23T17:44:57.350Z,64.07
2022-11-23T17:47:24.927Z,72.87
2022-11-23T17:49:51.547Z,73.20
2022-11-23T17:52:18.250Z,71.10
2022-11-23T17:54:44.780Z,58.87
2022-11-23T17:57:15.642Z,63.03
2022-11-23T17:59:42.437Z,60.17
2022-11-23T18:02:09.530Z,57.33
2022-11-23T18:04:36.635Z,55.27
2022-11-23T18:07:03.683Z,71.97
2022-11-23T18:09:30.830Z,56.13
2022-11-23T18:11:57.841Z,45.93
2022-11-23T18:14:28.751Z,48.93
2022-11-23T18:16:56.423Z,60.73
2022-11-23T18:19:23.194Z,61.03
2022-11-23T18:21:49.915Z,52.57
2022-11-23T18:24:16.485Z,69.67
2022-11-23T18:26:43.094Z,56.87
2022-11-23T18:29:15.552Z,57.93
2022-11-23T18:31:43.588Z,61.33
2022-11-23T18:34:10.402Z,64.10
2022-11-23T18:36:36.855Z,12.30
2022-11-23T18:39:03.416Z,18.90
2022-11-23T18:41:29.894Z,14.07
2022-11-23T18:43:56.350Z,18.90
2022-11-23T18:46:23.277Z,15.87
2022-11-23T18:48:50.375Z,25.30
2022-11-23T18:51:17.679Z,23.03
2022-11-23T18:53:48.198Z,10.87
2022-11-23T18:56:14.825Z,23.93
2022-11-23T18:58:43.146Z,21.33
2022-11-23T19:01:12.135Z,16.00
2022-11-23T19:03:42.657Z,20.77
2022-11-23T19:06:13.533Z,20.87
2022-11-23T19:08:41.976Z,21.50
2022-11-23T19:11:15.815Z,22.03
2022-11-23T19:13:42.417Z,19.10
2022-11-23T19:16:10.002Z,20.83
2022-11-23T19:18:36.646Z,25.13
2022-11-23T19:21:17.216Z,21.73
2022-11-23T19:23:44.789Z,16.07
2022-11-23T19:26:11.263Z,20.13
2022-11-23T19:28:38.058Z,24.37
2022-11-23T19:31:11.922Z,22.37
2022-11-23T19:33:38.709Z,17.73
2022-11-23T19:36:14.187Z,17.73
2022-11-23T19:38:41.178Z,23.33
2022-11-23T19:41:07.910Z,21.97
2022-11-23T19:43:34.687Z,34.73
2022-11-23T19:46:03.568Z,19.30
2022-11-23T19:48:31.345Z,26.63
2022-11-23T19:51:00.209Z,21.10
2022-11-23T19:53:30.702Z,22.80
2022-11-23T19:56:05.550Z,25.20
2022-11-23T19:58:33.405Z,25.40
2022-11-23T20:01:05.037Z,16.97
2022-11-23T20:03:34.345Z,24.77
2022-11-23T20:06:02.798Z,17.03
2022-11-23T20:08:29.560Z,24.37
2022-11-23T20:10:56.437Z,51.17
2022-11-23T20:13:23.513Z,14.20
2022-11-23T20:15:50.339Z,18.33
2022-11-23T20:18:17.994Z,18.73
2022-11-23T20:20:46.832Z,25.17
2022-11-23T20:23:14.883Z,21.40
2022-11-23T20:25:42.071Z,21.20
2022-11-23T20:28:12.106Z,16.93
2022-11-23T20:30:38.687Z,21.40
2022-11-23T20:33:05.198Z,15.07
2022-11-23T20:35:31.962Z,15.73
2022-11-23T20:37:58.519Z,15.43
2022-11-23T20:40:25.067Z,19.53
2022-11-23T20:42:51.545Z,20.40
2022-11-23T20:45:18.102Z,15.10
2022-11-23T20:47:46.435Z,14.30
2022-11-23T20:50:12.982Z,12.00
2022-11-23T20:52:39.532Z,13.37
2022-11-23T20:55:06.484Z,17.33
2022-11-23T20:57:33.760Z,26.53
2022-11-23T21:00:00.272Z,20.43
2022-11-23T21:02:26.912Z,18.03
2022-11-23T21:04:53.427Z,20.80
2022-11-23T21:07:21.041Z,25.23
2022-11-23T21:09:47.571Z,12.87
2022-11-23T21:12:32.598Z,12.23
2022-11-23T21:14:59.251Z,14.97
2022-11-23T21:17:25.763Z,11.70
2022-11-23T21:19:52.368Z,26.67
2022-11-23T21:22:19.020Z,18.60
2022-11-23T21:24:45.664Z,8.50
2022-11-23T21:27:13.384Z,17.40
2022-11-23T21:29:40.265Z,18.87
2022-11-23T21:32:06.792Z,18.13
2022-11-23T21:34:33.917Z,13.23
2022-11-23T21:37:01.035Z,24.10
2022-11-23T21:39:30.066Z,18.00
2022-11-23T21:41:56.564Z,25.63
2022-11-23T21:44:23.241Z,14.97
2022-11-23T21:46:49.916Z,15.57
2022-11-23T21:49:16.572Z,17.40
2022-11-23T21:51:44.547Z,34.13
2022-11-23T21:54:14.211Z,27.17
2022-11-23T21:56:41.865Z,17.50
2022-11-23T21:59:08.757Z,25.87
2022-11-23T22:01:36.303Z,13.87
2022-11-23T22:04:11.414Z,21.70
2022-11-23T22:06:39.069Z,15.73
2022-11-23T22:09:07.608Z,13.80
2022-11-23T22:11:35.616Z,22.03
2022-11-23T22:14:04.958Z,18.43
2022-11-23T22:16:36.950Z,16.67
2022-11-23T22:19:05.669Z,19.60
2022-11-23T22:21:34.498Z,18.60
2022-11-23T22:24:01.348Z,17.03
2022-11-23T22:26:27.995Z,20.73
2022-11-23T22:28:55.436Z,39.47
2022-11-23T22:31:24.770Z,22.37
2022-11-23T22:33:52.815Z,29.00
2022-11-23T22:36:21.337Z,34.87
2022-11-23T22:38:48.269Z,34.77
2022-11-23T22:41:16.839Z,23.73
2022-11-23T22:43:43.795Z,25.80
2022-11-23T22:46:15.428Z,23.37
2022-11-23T22:48:43.654Z,21.50
2022-11-23T22:51:12.309Z,25.63
2022-11-23T22:53:44.549Z,25.73
2022-11-23T22:56:16.668Z,20.00
2022-11-23T22:58:44.693Z,25.37
2022-11-23T23:01:13.697Z,35.40
2022-11-23T23:03:40.930Z,23.30
2022-11-23T23:06:07.780Z,22.07
2022-11-23T23:08:34.454Z,18.87
2022-11-23T23:11:05.803Z,21.63
2022-11-23T23:13:34.204Z,23.10
2022-11-23T23:16:02.074Z,20.83
2022-11-23T23:18:28.832Z,23.93
2022-11-23T23:21:10.997Z,18.03
2022-11-23T23:23:38.429Z,15.23
2022-11-23T23:26:05.723Z,28.73
2022-11-23T23:28:32.347Z,15.40
2022-11-23T23:31:03.278Z,11.40
2022-11-23T23:33:32.255Z,16.67
2022-11-23T23:36:12.340Z,12.67
2022-11-23T23:38:39.074Z,17.97
2022-11-23T23:41:06.599Z,16.73
2022-11-23T23:43:33.875Z,18.73
2022-11-23T23:46:02.000Z,12.17
2022-11-23T23:48:30.000Z,22.63
2022-11-23T23:50:56.518Z,12.47
2022-11-23T23:53:23.115Z,13.40
2022-11-23T23:55:57.302Z,15.93
2022-11-23T23:58:23.991Z,20.50
